createdAt,value
2018-03-11T00:02:26.195Z,99.90
2018-03-11T00:04:54.816Z,99.90
2018-03-11T00:07:23.377Z,99.90
2018-03-11T00:09:51.898Z,99.90
2018-03-11T00:12:21.264Z,99.90
2018-03-11T00:14:49.855Z,99.90
2018-03-11T00:17:18.421Z,99.90
2018-03-11T00:19:46.988Z,99.90
2018-03-11T00:22:15.408Z,99.90
2018-03-11T00:24:43.976Z,99.90
2018-03-11T00:27:12.593Z,99.90
2018-03-11T00:29:41.162Z,99.90
2018-03-11T00:32:09.817Z,99.90
2018-03-11T00:34:38.344Z,99.90
2018-03-11T00:37:06.911Z,99.90
2018-03-11T00:39:52.584Z,99.90
2018-03-11T00:42:21.818Z,99.90
2018-03-11T00:44:50.416Z,99.90
2018-03-11T00:47:18.958Z,99.90
2018-03-11T00:49:47.580Z,99.90
2018-03-11T00:52:16.159Z,99.90
2018-03-11T00:54:44.774Z,99.90
2018-03-11T00:57:13.356Z,99.90
2018-03-11T00:59:41.916Z,99.90
2018-03-11T01:02:10.474Z,99.90
2018-03-11T01:04:39.033Z,99.90
2018-03-11T01:07:09.010Z,99.90
2018-03-11T01:09:37.623Z,99.90
2018-03-11T01:12:06.216Z,99.90
2018-03-11T01:14:35.553Z,99.90
2018-03-11T01:17:04.160Z,99.90
2018-03-11T01:19:32.720Z,99.90
2018-03-11T01:22:01.317Z,99.90
2018-03-11T01:24:29.913Z,99.90
2018-03-11T01:26:58.828Z,99.90
2018-03-11T01:29:28.260Z,99.90
2018-03-11T01:31:56.808Z,99.90
2018-03-11T01:34:25.432Z,99.90
2018-03-11T01:36:53.984Z,99.90
2018-03-11T01:39:22.573Z,99.90
2018-03-11T01:41:51.099Z,99.90
2018-03-11T01:44:20.454Z,99.90
2018-03-11T01:46:49.037Z,99.90
2018-03-11T01:49:17.620Z,99.90
2018-03-11T01:51:46.140Z,99.90
2018-03-11T01:54:14.738Z,99.90
2018-03-11T01:56:44.106Z,99.90
2018-03-11T01:59:12.662Z,99.90
2018-03-11T02:01:41.265Z,99.90
2018-03-11T02:04:09.842Z,99.90
2018-03-11T02:06:38.435Z,99.90
2018-03-11T02:09:07.021Z,99.90
2018-03-11T02:11:35.738Z,99.90
2018-03-11T02:14:04.040Z,99.90
2018-03-11T02:16:32.600Z,99.90
2018-03-11T02:19:00.880Z,99.90
2018-03-11T02:21:29.465Z,99.90
2018-03-11T02:23:58.054Z,99.90
2018-03-11T02:26:26.578Z,99.90
2018-03-11T02:28:55.921Z,99.90
2018-03-11T02:31:24.478Z,99.90
2018-03-11T02:33:53.037Z,99.90
2018-03-11T02:36:21.774Z,99.90
2018-03-11T02:38:50.342Z,99.90
2018-03-11T02:41:18.946Z,99.90
2018-03-11T02:43:47.523Z,99.90
2018-03-11T02:46:16.114Z,99.90
2018-03-11T02:48:44.711Z,99.90
2018-03-11T02:51:13.275Z,99.90
2018-03-11T02:53:41.870Z,99.90
2018-03-11T02:56:10.434Z,99.90
2018-03-11T02:58:39.789Z,99.90
2018-03-11T03:01:08.365Z,99.90
2018-03-11T03:03:36.958Z,99.90
2018-03-11T03:06:05.601Z,99.90
2018-03-11T03:08:34.189Z,99.90
2018-03-11T03:11:02.868Z,99.90
2018-03-11T03:13:32.287Z,99.90
2018-03-11T03:16:00.898Z,99.90
2018-03-11T03:18:29.499Z,99.90
2018-03-11T03:20:58.078Z,99.90
2018-03-11T03:23:26.587Z,99.90
2018-03-11T03:25:55.190Z,99.90
2018-03-11T03:28:24.537Z,99.90
2018-03-11T03:30:53.194Z,99.90
2018-03-11T03:33:21.972Z,99.90
2018-03-11T03:35:51.313Z,99.90
2018-03-11T03:38:20.042Z,99.90
2018-03-11T03:40:48.612Z,99.90
2018-03-11T03:43:17.202Z,99.90
2018-03-11T03:45:45.760Z,99.90
2018-03-11T03:48:14.409Z,99.90
2018-03-11T03:50:43.005Z,99.90
2018-03-11T03:53:12.349Z,99.90
2018-03-11T03:55:40.956Z,99.90
2018-03-11T03:58:09.543Z,99.90
2018-03-11T04:00:38.130Z,99.90
2018-03-11T04:03:06.726Z,99.90
2018-03-11T04:05:35.339Z,99.90
2018-03-11T04:08:04.708Z,99.90
2018-03-11T04:10:33.294Z,99.90
2018-03-11T04:13:01.881Z,99.90
2018-03-11T04:15:30.441Z,99.90
2018-03-11T04:17:59.102Z,99.90
2018-03-11T04:20:27.803Z,99.90
2018-03-11T04:22:56.409Z,99.90
2018-03-11T04:25:24.965Z,99.90
2018-03-11T04:27:53.539Z,99.90
2018-03-11T04:30:22.879Z,99.90
2018-03-11T04:32:51.456Z,99.90
2018-03-11T04:35:20.051Z,99.90
2018-03-11T04:37:48.655Z,99.90
2018-03-11T04:40:17.220Z,99.90
2018-03-11T04:42:45.778Z,99.90
2018-03-11T04:45:15.143Z,99.90
2018-03-11T04:47:43.740Z,99.90
2018-03-11T04:50:12.314Z,99.90
2018-03-11T04:52:40.922Z,99.90
2018-03-11T04:55:09.482Z,99.90
2018-03-11T04:57:38.059Z,99.90
2018-03-11T05:00:06.802Z,99.90
2018-03-11T05:02:36.160Z,99.90
2018-03-11T05:05:04.473Z,99.90
2018-03-11T05:07:33.056Z,99.90
2018-03-11T05:10:01.640Z,99.90
2018-03-11T05:12:30.180Z,99.90
2018-03-11T05:14:58.755Z,99.90
2018-03-11T05:17:27.317Z,99.90
2018-03-11T05:19:55.899Z,99.90
2018-03-11T05:22:25.229Z,99.90
2018-03-11T05:24:53.794Z,99.90
2018-03-11T05:27:23.246Z,99.90
2018-03-11T05:29:51.778Z,99.90
2018-03-11T05:32:21.147Z,99.90
2018-03-11T05:34:49.708Z,99.90
2018-03-11T05:37:18.274Z,99.90
2018-03-11T05:39:58.986Z,99.90
2018-03-11T05:42:27.580Z,99.90
2018-03-11T05:44:56.179Z,99.90
2018-03-11T05:47:24.794Z,99.90
2018-03-11T05:49:53.348Z,99.90
2018-03-11T05:52:21.945Z,99.90
2018-03-11T05:54:50.508Z,99.90
2018-03-11T05:57:19.110Z,99.90
2018-03-11T05:59:47.713Z,99.90
2018-03-11T06:02:17.010Z,99.90
2018-03-11T06:04:45.597Z,99.90
2018-03-11T06:07:14.930Z,99.90
2018-03-11T06:09:43.521Z,99.90
2018-03-11T06:12:12.066Z,99.90
2018-03-11T06:14:40.647Z,99.90
2018-03-11T06:17:09.212Z,99.90
2018-03-11T06:19:37.802Z,99.90
2018-03-11T06:22:06.410Z,99.90
2018-03-11T06:24:34.957Z,99.90
2018-03-11T06:27:03.567Z,99.90
2018-03-11T06:29:32.089Z,99.90
2018-03-11T06:32:01.418Z,99.90
2018-03-11T06:34:29.981Z,99.90
2018-03-11T06:36:59.309Z,99.90
2018-03-11T06:39:27.850Z,99.90
2018-03-11T06:41:57.193Z,99.90
2018-03-11T06:44:25.776Z,99.90
2018-03-11T06:46:54.402Z,99.90
2018-03-11T06:49:22.972Z,99.90
2018-03-11T06:51:51.555Z,99.90
2018-03-11T06:54:20.297Z,99.90
2018-03-11T06:56:49.733Z,99.90
2018-03-11T06:59:18.339Z,99.90
2018-03-11T07:01:46.908Z,99.90
2018-03-11T07:04:15.485Z,99.90
2018-03-11T07:06:44.044Z,99.90
2018-03-11T07:09:12.621Z,99.90
2018-03-11T07:11:41.211Z,99.90
2018-03-11T07:14:10.554Z,99.90
2018-03-11T07:16:39.124Z,99.90
2018-03-11T07:19:08.468Z,99.90
2018-03-11T07:21:37.051Z,99.90
2018-03-11T07:24:05.317Z,99.90
2018-03-11T07:26:33.915Z,99.90
2018-03-11T07:29:02.484Z,99.90
2018-03-11T07:31:31.046Z,99.90
2018-03-11T07:34:00.379Z,99.90
2018-03-11T07:36:28.935Z,99.90
2018-03-11T07:38:58.288Z,99.90
2018-03-11T07:41:26.932Z,99.90
2018-03-11T07:43:55.667Z,99.90
2018-03-11T07:46:24.236Z,99.90
2018-03-11T07:48:52.790Z,99.90
2018-03-11T07:51:21.509Z,99.90
2018-03-11T07:53:50.152Z,99.90
2018-03-11T07:56:19.484Z,99.90
2018-03-11T07:58:48.027Z,99.90
2018-03-11T08:01:16.624Z,99.90
2018-03-11T08:03:45.205Z,99.90
2018-03-11T08:06:13.460Z,99.90
2018-03-11T08:08:42.097Z,99.90
2018-03-11T08:11:10.653Z,99.90
2018-03-11T08:13:39.240Z,99.90
2018-03-11T08:16:07.804Z,99.90
2018-03-11T08:18:36.411Z,99.90
2018-03-11T08:21:04.974Z,99.90
2018-03-11T08:23:33.560Z,99.90
2018-03-11T08:26:02.124Z,99.90
2018-03-11T08:28:30.728Z,99.90
2018-03-11T08:30:59.297Z,99.90
2018-03-11T08:33:27.829Z,99.90
2018-03-11T08:35:56.384Z,99.90
2018-03-11T08:38:24.910Z,99.90
2018-03-11T08:40:54.251Z,99.90
2018-03-11T08:43:22.818Z,99.90
2018-03-11T08:45:51.328Z,99.90
2018-03-11T08:48:19.916Z,99.90
2018-03-11T08:50:48.432Z,99.90
2018-03-11T08:53:17.025Z,99.90
2018-03-11T08:55:45.591Z,99.90
2018-03-11T08:58:14.154Z,99.90
2018-03-11T09:00:42.695Z,99.90
2018-03-11T09:03:12.020Z,99.90
2018-03-11T09:05:40.532Z,99.90
2018-03-11T09:08:09.106Z,99.90
2018-03-11T09:10:37.670Z,99.90
2018-03-11T09:13:05.921Z,99.90
2018-03-11T09:15:34.504Z,99.90
2018-03-11T09:18:03.048Z,99.90
2018-03-11T09:20:31.969Z,99.90
2018-03-11T09:23:00.525Z,99.90
2018-03-11T09:25:29.206Z,99.90
2018-03-11T09:27:57.860Z,99.90
2018-03-11T09:30:26.472Z,99.90
2018-03-11T09:32:55.056Z,99.90
2018-03-11T09:35:23.632Z,99.90
2018-03-11T09:37:51.892Z,99.90
2018-03-11T09:40:21.189Z,99.90
2018-03-11T09:42:49.785Z,99.90
2018-03-11T09:45:19.165Z,99.90
2018-03-11T09:47:47.742Z,99.90
2018-03-11T09:50:16.310Z,99.90
2018-03-11T09:52:44.868Z,99.90
2018-03-11T09:55:13.481Z,99.90
2018-03-11T09:57:42.073Z,99.90
2018-03-11T10:02:40.223Z,99.90
2018-03-11T10:05:09.684Z,99.90
2018-03-11T10:07:38.255Z,99.90
2018-03-11T10:10:06.937Z,99.90
2018-03-11T10:12:35.604Z,99.90
2018-03-11T10:15:04.602Z,99.90
2018-03-11T10:17:33.185Z,99.90
2018-03-11T10:20:01.763Z,99.90
2018-03-11T10:22:31.117Z,99.90
2018-03-11T10:24:59.713Z,99.90
2018-03-11T10:27:28.323Z,99.90
2018-03-11T10:29:56.906Z,99.90
2018-03-11T10:32:25.554Z,99.90
2018-03-11T10:34:54.153Z,99.90
2018-03-11T10:37:22.744Z,99.90
2018-03-11T10:39:51.343Z,99.90
2018-03-11T10:42:19.912Z,99.90
2018-03-11T10:44:48.493Z,99.90
2018-03-11T10:47:17.069Z,99.90
2018-03-11T10:49:45.671Z,99.90
2018-03-11T10:52:14.243Z,99.90
2018-03-11T10:54:42.785Z,99.90
2018-03-11T10:57:12.261Z,99.90
2018-03-11T10:59:40.792Z,99.90
2018-03-11T11:02:21.691Z,99.90
2018-03-11T11:04:55.672Z,99.90
2018-03-11T11:07:28.638Z,99.90
2018-03-11T11:09:57.203Z,99.90
2018-03-11T11:12:27.804Z,99.90
2018-03-11T11:14:56.439Z,99.90
2018-03-11T11:17:25.025Z,99.90
2018-03-11T11:19:53.597Z,99.90
2018-03-11T11:22:22.178Z,99.90
2018-03-11T11:24:50.784Z,99.90
2018-03-11T11:27:21.897Z,99.90
2018-03-11T11:30:08.262Z,99.90
2018-03-11T11:32:37.471Z,99.90
2018-03-11T11:35:06.064Z,99.90
2018-03-11T11:37:34.702Z,99.90
2018-03-11T11:40:03.411Z,99.90
2018-03-11T11:42:38.132Z,99.90
2018-03-11T11:45:06.693Z,99.90
2018-03-11T11:47:35.299Z,99.90
2018-03-11T11:50:03.849Z,99.90
2018-03-11T11:52:32.412Z,99.90
2018-03-11T11:55:00.950Z,99.90
2018-03-11T11:57:29.527Z,99.90
2018-03-11T11:59:58.126Z,99.90
2018-03-11T12:02:26.802Z,99.90
2018-03-11T12:04:55.406Z,99.90
2018-03-11T12:07:23.994Z,92.30
2018-03-11T12:09:52.595Z,90.00
2018-03-11T12:12:21.141Z,86.00
2018-03-11T12:14:49.727Z,88.70
2018-03-11T12:17:18.314Z,90.60
2018-03-11T12:19:46.912Z,92.40
2018-03-11T12:22:15.520Z,93.50
2018-03-11T12:24:44.821Z,91.30
2018-03-11T12:27:13.444Z,91.20
2018-03-11T12:29:43.269Z,93.30
2018-03-11T12:32:15.633Z,80.80
2018-03-11T12:34:44.145Z,75.10
2018-03-11T12:37:12.709Z,75.50
2018-03-11T12:39:41.320Z,75.90
2018-03-11T12:42:10.029Z,69.70
2018-03-11T12:44:38.618Z,74.80
2018-03-11T12:47:07.328Z,78.70
2018-03-11T12:49:36.765Z,86.60
2018-03-11T12:52:05.284Z,86.80
2018-03-11T12:54:33.977Z,82.70
2018-03-11T12:57:03.539Z,83.80
2018-03-11T12:59:32.166Z,83.20
2018-03-11T13:02:01.759Z,79.10
2018-03-11T13:04:30.357Z,77.10
2018-03-11T13:07:06.001Z,84.60
2018-03-11T13:09:34.698Z,86.30
2018-03-11T13:12:03.516Z,88.60
2018-03-11T13:14:37.729Z,89.20
2018-03-11T13:17:06.346Z,91.40
2018-03-11T13:19:34.892Z,92.80
2018-03-11T13:22:03.470Z,91.80
2018-03-11T13:24:32.002Z,91.50
2018-03-11T13:27:00.650Z,91.50
2018-03-11T13:29:29.288Z,88.40
2018-03-11T13:32:09.177Z,85.40
2018-03-11T13:34:37.775Z,81.20
2018-03-11T13:37:06.311Z,82.50
2018-03-11T13:39:46.371Z,87.00
2018-03-11T13:42:14.952Z,86.70
2018-03-11T13:44:42.911Z,86.10
2018-03-11T13:47:13.602Z,82.90
2018-03-11T13:49:42.205Z,86.80
2018-03-11T13:52:21.860Z,90.20
2018-03-11T13:54:51.230Z,92.90
2018-03-11T14:00:32.057Z,93.60
2018-03-11T14:03:00.713Z,94.60
2018-03-11T14:05:29.252Z,96.40
2018-03-11T14:07:57.885Z,94.30
2018-03-11T14:10:26.410Z,91.60
2018-03-11T14:12:55.682Z,85.80
2018-03-11T14:15:24.196Z,84.00
2018-03-11T14:17:53.448Z,67.10
2018-03-11T14:20:22.052Z,66.50
2018-03-11T14:22:50.577Z,65.10
2018-03-11T14:25:19.855Z,68.00
2018-03-11T14:27:48.380Z,68.10
2018-03-11T14:30:16.887Z,75.80
2018-03-11T14:32:45.414Z,83.90
2018-03-11T14:35:13.905Z,89.10
2018-03-11T14:37:53.460Z,93.70
2018-03-11T14:40:22.744Z,94.60
2018-03-11T14:42:52.025Z,96.20
2018-03-11T14:45:22.405Z,96.30
2018-03-11T14:47:50.952Z,96.30
2018-03-11T14:50:19.719Z,96.50
2018-03-11T14:52:48.216Z,96.70
2018-03-11T18:15:10.760Z,99.90
2018-03-11T18:17:39.351Z,99.90
2018-03-11T18:20:07.854Z,99.90
2018-03-11T18:22:36.383Z,99.90
2018-03-11T18:25:04.908Z,99.90
2018-03-11T18:27:33.470Z,99.90
2018-03-11T18:30:02.761Z,99.90
2018-03-11T18:32:39.346Z,99.90
2018-03-11T18:35:08.664Z,99.90
2018-03-11T18:37:37.206Z,99.90
2018-03-11T18:40:05.408Z,99.90
2018-03-11T18:42:33.955Z,99.90
2018-03-11T18:45:03.588Z,99.90
2018-03-11T18:47:32.076Z,99.90
2018-03-11T18:50:00.654Z,99.90
2018-03-11T18:52:30.134Z,99.90
2018-03-11T18:54:58.648Z,99.90
2018-03-11T18:57:27.148Z,99.90
2018-03-11T18:59:55.789Z,99.90
2018-03-11T19:02:24.284Z,99.90
2018-03-11T19:04:52.792Z,99.90
2018-03-11T19:07:21.413Z,99.90
2018-03-11T19:09:49.917Z,99.90
2018-03-11T19:12:18.429Z,99.90
2018-03-11T19:14:46.943Z,99.90
2018-03-11T19:17:22.556Z,99.90
2018-03-11T19:19:51.091Z,99.90
2018-03-11T19:22:19.664Z,99.90
2018-03-11T19:24:48.974Z,99.90
2018-03-11T19:27:17.588Z,99.90
2018-03-11T19:29:46.173Z,99.90
2018-03-11T19:32:14.782Z,99.90
2018-03-11T19:34:43.376Z,99.90
2018-03-11T19:37:12.030Z,99.90
2018-03-11T19:39:40.648Z,99.90
2018-03-11T19:42:09.262Z,99.90
2018-03-11T19:44:38.004Z,99.90
2018-03-11T19:47:06.588Z,99.90
2018-03-11T19:49:35.148Z,99.90
2018-03-11T19:52:14.256Z,99.90
2018-03-11T19:54:42.840Z,99.90
2018-03-11T19:57:11.420Z,99.90
2018-03-11T19:59:46.236Z,99.90
2018-03-11T20:02:14.835Z,99.90
2018-03-11T20:04:43.421Z,99.90
2018-03-11T20:07:22.748Z,99.90
2018-03-11T20:09:51.348Z,99.90
2018-03-11T20:12:19.910Z,99.90
2018-03-11T20:14:48.476Z,99.90
2018-03-11T20:17:17.041Z,99.90
2018-03-11T20:19:46.047Z,99.90
2018-03-11T20:22:14.623Z,99.90
2018-03-11T20:24:43.308Z,99.90
2018-03-11T20:27:11.876Z,99.90
2018-03-11T20:29:40.460Z,99.90
2018-03-11T20:32:09.825Z,99.90
2018-03-11T20:34:39.492Z,99.90
2018-03-11T20:37:08.075Z,99.90
2018-03-11T20:39:36.628Z,99.90
2018-03-11T20:42:05.277Z,99.90
2018-03-11T20:44:33.865Z,99.90
2018-03-11T20:47:02.449Z,99.90
2018-03-11T20:49:34.056Z,99.90
2018-03-11T20:52:02.618Z,99.90
2018-03-11T20:54:31.238Z,99.90
2018-03-11T20:57:00.637Z,99.90
2018-03-11T20:59:29.235Z,99.90
2018-03-11T21:01:58.601Z,99.90
2018-03-11T21:04:27.197Z,99.90
2018-03-11T21:06:55.829Z,99.90
2018-03-11T21:09:24.389Z,99.90
2018-03-11T21:11:53.739Z,99.90
2018-03-11T21:14:22.326Z,99.90
2018-03-11T21:16:50.969Z,99.90
2018-03-11T21:19:19.541Z,99.90
2018-03-11T21:21:48.098Z,99.90
2018-03-11T21:24:16.701Z,99.90
2018-03-11T21:26:45.230Z,99.90
2018-03-11T21:29:13.817Z,99.90
2018-03-11T21:31:42.445Z,99.90
2018-03-11T21:34:10.382Z,99.90
2018-03-11T21:36:38.951Z,99.90
2018-03-11T21:39:08.330Z,99.90
2018-03-11T21:41:36.916Z,99.90
2018-03-11T21:44:05.518Z,99.90
2018-03-11T21:46:36.181Z,99.90
2018-03-11T21:49:04.770Z,99.90
2018-03-11T21:51:33.345Z,99.90
2018-03-11T21:54:02.649Z,99.90
2018-03-11T21:56:31.091Z,99.90
2018-03-11T21:58:59.676Z,99.90
2018-03-11T22:01:28.128Z,99.90
2018-03-11T22:03:56.684Z,99.90
2018-03-11T22:06:25.367Z,99.90
2018-03-11T22:08:54.707Z,99.90
2018-03-11T22:11:23.265Z,99.90
2018-03-11T22:13:51.808Z,99.90
2018-03-11T22:16:32.153Z,99.90
2018-03-11T22:19:00.712Z,99.90
2018-03-11T22:21:29.254Z,99.90
2018-03-11T22:23:57.841Z,99.90
2018-03-11T22:26:26.441Z,99.90
2018-03-11T22:28:55.034Z,99.90
2018-03-11T22:31:23.636Z,99.90
2018-03-11T22:33:52.049Z,99.90
2018-03-11T22:36:20.649Z,99.90
2018-03-11T22:38:49.191Z,99.90
2018-03-11T22:41:17.816Z,99.90
2018-03-11T22:43:46.332Z,99.90
2018-03-11T22:46:14.911Z,99.90
2018-03-11T22:48:44.429Z,99.90
2018-03-11T22:51:13.044Z,99.90
2018-03-11T22:53:41.645Z,99.90
2018-03-11T22:56:10.217Z,99.90
2018-03-11T22:59:01.408Z,99.90
2018-03-11T23:01:30.728Z,99.90
2018-03-11T23:03:59.294Z,99.90
2018-03-11T23:06:28.606Z,99.90
2018-03-11T23:08:57.241Z,99.90
2018-03-11T23:11:26.007Z,99.90
2018-03-11T23:13:54.566Z,99.90
2018-03-11T23:16:23.850Z,99.90
2018-03-11T23:19:03.535Z,99.90
2018-03-11T23:21:32.130Z,99.90
2018-03-11T23:24:00.688Z,99.90
2018-03-11T23:26:29.287Z,99.90
2018-03-11T23:28:57.849Z,99.90
2018-03-11T23:31:26.465Z,99.90
2018-03-11T23:33:55.039Z,99.90
2018-03-11T23:36:24.381Z,99.90
2018-03-11T23:38:52.953Z,99.90
2018-03-11T23:41:21.507Z,99.90
2018-03-11T23:43:50.810Z,99.90
2018-03-11T23:46:19.575Z,99.90
2018-03-11T23:48:48.164Z,99.90
2018-03-11T23:51:16.766Z,99.90
2018-03-11T23:53:45.349Z,99.90
2018-03-11T23:56:13.929Z,99.90
2018-03-11T23:58:42.513Z,99.90
